sensor_id;sensor_type;location;lat;lon;timestamp;temperature;humidity
51855;DHT22;37895;53.240;6.572;2023-06-14T00:01:26;17.00;82.60
51855;DHT22;37895;53.240;6.572;2023-06-14T00:03:52;16.90;83.60
51855;DHT22;37895;53.240;6.572;2023-06-14T00:06:19;16.80;84.40
51855;DHT22;37895;53.240;6.572;2023-06-14T00:08:44;16.80;84.50
51855;DHT22;37895;53.240;6.572;2023-06-14T00:11:10;16.80;84.90
51855;DHT22;37895;53.240;6.572;2023-06-14T00:13:36;16.70;85.40
51855;DHT22;37895;53.240;6.572;2023-06-14T00:16:01;16.70;85.60
51855;DHT22;37895;53.240;6.572;2023-06-14T00:18:27;16.60;85.60
51855;DHT22;37895;53.240;6.572;2023-06-14T00:20:55;16.60;86.90
51855;DHT22;37895;53.240;6.572;2023-06-14T00:23:20;16.50;86.80
51855;DHT22;37895;53.240;6.572;2023-06-14T00:25:46;16.50;87.50
51855;DHT22;37895;53.240;6.572;2023-06-14T00:28:11;16.40;88.30
51855;DHT22;37895;53.240;6.572;2023-06-14T00:30:37;16.40;88.50
51855;DHT22;37895;53.240;6.572;2023-06-14T00:33:03;16.40;89.20
51855;DHT22;37895;53.240;6.572;2023-06-14T00:35:28;16.30;89.80
51855;DHT22;37895;53.240;6.572;2023-06-14T00:37:54;16.30;89.90
51855;DHT22;37895;53.240;6.572;2023-06-14T00:40:20;16.30;90.30
51855;DHT22;37895;53.240;6.572;2023-06-14T00:42:46;16.30;90.70
51855;DHT22;37895;53.240;6.572;2023-06-14T00:45:12;16.30;90.50
51855;DHT22;37895;53.240;6.572;2023-06-14T00:47:37;16.30;90.60
51855;DHT22;37895;53.240;6.572;2023-06-14T00:50:05;16.30;90.80
51855;DHT22;37895;53.240;6.572;2023-06-14T00:52:31;16.20;90.70
51855;DHT22;37895;53.240;6.572;2023-06-14T00:54:57;16.20;90.60
51855;DHT22;37895;53.240;6.572;2023-06-14T00:57:23;16.20;91.00
51855;DHT22;37895;53.240;6.572;2023-06-14T00:59:49;16.10;91.10
51855;DHT22;37895;53.240;6.572;2023-06-14T01:02:15;16.10;90.70
51855;DHT22;37895;53.240;6.572;2023-06-14T01:04:41;16.10;91.30
51855;DHT22;37895;53.240;6.572;2023-06-14T01:07:12;16.20;91.50
51855;DHT22;37895;53.240;6.572;2023-06-14T01:09:58;16.10;91.70
51855;DHT22;37895;53.240;6.572;2023-06-14T01:12:34;16.10;92.00
51855;DHT22;37895;53.240;6.572;2023-06-14T01:15:01;16.10;91.80
51855;DHT22;37895;53.240;6.572;2023-06-14T01:17:27;16.10;91.70
51855;DHT22;37895;53.240;6.572;2023-06-14T01:20:03;16.00;92.00
51855;DHT22;37895;53.240;6.572;2023-06-14T01:22:32;16.00;92.20
51855;DHT22;37895;53.240;6.572;2023-06-14T01:24:57;15.90;92.60
51855;DHT22;37895;53.240;6.572;2023-06-14T01:27:26;15.80;92.70
51855;DHT22;37895;53.240;6.572;2023-06-14T01:29:54;15.80;92.60
51855;DHT22;37895;53.240;6.572;2023-06-14T01:32:31;15.80;92.80
51855;DHT22;37895;53.240;6.572;2023-06-14T01:34:57;15.70;93.20
51855;DHT22;37895;53.240;6.572;2023-06-14T01:37:22;15.70;93.20
51855;DHT22;37895;53.240;6.572;2023-06-14T01:39:48;15.70;93.10
51855;DHT22;37895;53.240;6.572;2023-06-14T01:42:16;15.70;93.10
51855;DHT22;37895;53.240;6.572;2023-06-14T01:44:43;15.70;93.20
51855;DHT22;37895;53.240;6.572;2023-06-14T01:47:09;15.70;93.60
51855;DHT22;37895;53.240;6.572;2023-06-14T01:49:35;15.70;93.50
51855;DHT22;37895;53.240;6.572;2023-06-14T01:52:01;15.60;93.80
51855;DHT22;37895;53.240;6.572;2023-06-14T01:54:26;15.50;94.20
51855;DHT22;37895;53.240;6.572;2023-06-14T01:56:52;15.50;94.40
51855;DHT22;37895;53.240;6.572;2023-06-14T01:59:18;15.40;94.20
51855;DHT22;37895;53.240;6.572;2023-06-14T02:01:44;15.50;94.40
51855;DHT22;37895;53.240;6.572;2023-06-14T02:04:11;15.50;94.40
51855;DHT22;37895;53.240;6.572;2023-06-14T02:06:37;15.50;94.70
51855;DHT22;37895;53.240;6.572;2023-06-14T02:09:02;15.40;94.80
51855;DHT22;37895;53.240;6.572;2023-06-14T02:11:28;15.40;94.60
51855;DHT22;37895;53.240;6.572;2023-06-14T02:13:54;15.40;94.60
51855;DHT22;37895;53.240;6.572;2023-06-14T02:16:20;15.30;94.70
51855;DHT22;37895;53.240;6.572;2023-06-14T02:18:45;15.40;94.80
51855;DHT22;37895;53.240;6.572;2023-06-14T02:21:11;15.30;95.40
51855;DHT22;37895;53.240;6.572;2023-06-14T02:23:36;15.20;95.10
51855;DHT22;37895;53.240;6.572;2023-06-14T02:26:02;15.20;95.30
51855;DHT22;37895;53.240;6.572;2023-06-14T02:28:28;15.20;95.40
51855;DHT22;37895;53.240;6.572;2023-06-14T02:30:53;15.10;95.70
51855;DHT22;37895;53.240;6.572;2023-06-14T02:33:19;15.10;95.60
51855;DHT22;37895;53.240;6.572;2023-06-14T02:35:45;15.00;95.80
51855;DHT22;37895;53.240;6.572;2023-06-14T02:38:11;15.00;96.00
51855;DHT22;37895;53.240;6.572;2023-06-14T02:40:37;15.00;96.00
51855;DHT22;37895;53.240;6.572;2023-06-14T02:43:02;15.00;95.90
51855;DHT22;37895;53.240;6.572;2023-06-14T02:45:28;14.90;96.20
51855;DHT22;37895;53.240;6.572;2023-06-14T02:47:53;14.80;96.10
51855;DHT22;37895;53.240;6.572;2023-06-14T02:50:20;14.80;96.30
51855;DHT22;37895;53.240;6.572;2023-06-14T02:52:46;14.80;96.50
51855;DHT22;37895;53.240;6.572;2023-06-14T02:55:12;14.80;96.40
51855;DHT22;37895;53.240;6.572;2023-06-14T02:57:38;14.90;96.50
51855;DHT22;37895;53.240;6.572;2023-06-14T03:00:03;14.90;97.20
51855;DHT22;37895;53.240;6.572;2023-06-14T03:02:29;14.80;97.00
51855;DHT22;37895;53.240;6.572;2023-06-14T03:04:55;14.70;97.20
51855;DHT22;37895;53.240;6.572;2023-06-14T03:07:21;14.70;97.30
51855;DHT22;37895;53.240;6.572;2023-06-14T03:09:48;14.60;97.80
51855;DHT22;37895;53.240;6.572;2023-06-14T03:12:14;14.60;97.60
51855;DHT22;37895;53.240;6.572;2023-06-14T03:14:40;14.60;97.90
51855;DHT22;37895;53.240;6.572;2023-06-14T03:17:07;14.60;97.50
51855;DHT22;37895;53.240;6.572;2023-06-14T03:19:33;14.60;97.80
51855;DHT22;37895;53.240;6.572;2023-06-14T03:21:58;14.60;97.90
51855;DHT22;37895;53.240;6.572;2023-06-14T03:24:24;14.60;97.90
51855;DHT22;37895;53.240;6.572;2023-06-14T03:26:52;14.70;97.80
51855;DHT22;37895;53.240;6.572;2023-06-14T03:29:18;14.70;97.90
51855;DHT22;37895;53.240;6.572;2023-06-14T03:31:57;14.70;98.00
51855;DHT22;37895;53.240;6.572;2023-06-14T03:34:23;14.70;98.00
51855;DHT22;37895;53.240;6.572;2023-06-14T03:36:48;14.60;98.00
51855;DHT22;37895;53.240;6.572;2023-06-14T03:39:14;14.70;98.00
51855;DHT22;37895;53.240;6.572;2023-06-14T03:41:40;14.70;97.90
51855;DHT22;37895;53.240;6.572;2023-06-14T03:44:05;14.70;98.00
51855;DHT22;37895;53.240;6.572;2023-06-14T03:46:31;14.70;98.00
51855;DHT22;37895;53.240;6.572;2023-06-14T03:48:56;14.70;98.00
51855;DHT22;37895;53.240;6.572;2023-06-14T03:51:22;14.70;98.00
51855;DHT22;37895;53.240;6.572;2023-06-14T03:53:48;14.80;98.00
51855;DHT22;37895;53.240;6.572;2023-06-14T03:56:13;14.70;98.20
51855;DHT22;37895;53.240;6.572;2023-06-14T03:58:39;14.70;98.10
51855;DHT22;37895;53.240;6.572;2023-06-14T04:01:04;14.80;98.30
51855;DHT22;37895;53.240;6.572;2023-06-14T04:03:32;14.80;98.30
51855;DHT22;37895;53.240;6.572;2023-06-14T04:05:58;14.80;98.00
51855;DHT22;37895;53.240;6.572;2023-06-14T04:08:25;14.80;98.30
51855;DHT22;37895;53.240;6.572;2023-06-14T04:10:50;14.90;98.10
51855;DHT22;37895;53.240;6.572;2023-06-14T04:13:16;14.90;98.00
51855;DHT22;37895;53.240;6.572;2023-06-14T04:15:42;15.00;98.20
51855;DHT22;37895;53.240;6.572;2023-06-14T04:18:09;15.00;98.40
51855;DHT22;37895;53.240;6.572;2023-06-14T04:20:34;15.00;98.30
51855;DHT22;37895;53.240;6.572;2023-06-14T04:23:11;15.00;98.30
51855;DHT22;37895;53.240;6.572;2023-06-14T04:25:37;15.10;98.10
51855;DHT22;37895;53.240;6.572;2023-06-14T04:28:03;15.20;98.40
51855;DHT22;37895;53.240;6.572;2023-06-14T04:30:28;15.20;98.20
51855;DHT22;37895;53.240;6.572;2023-06-14T04:32:56;15.20;97.90
51855;DHT22;37895;53.240;6.572;2023-06-14T04:35:22;15.20;98.30
51855;DHT22;37895;53.240;6.572;2023-06-14T04:37:49;15.30;98.20
51855;DHT22;37895;53.240;6.572;2023-06-14T04:40:15;15.30;98.10
51855;DHT22;37895;53.240;6.572;2023-06-14T04:42:40;15.30;98.00
51855;DHT22;37895;53.240;6.572;2023-06-14T04:45:10;15.30;98.30
51855;DHT22;37895;53.240;6.572;2023-06-14T04:47:35;15.40;98.40
51855;DHT22;37895;53.240;6.572;2023-06-14T04:50:02;15.40;98.50
51855;DHT22;37895;53.240;6.572;2023-06-14T04:52:28;15.50;98.20
51855;DHT22;37895;53.240;6.572;2023-06-14T04:54:55;15.50;97.90
51855;DHT22;37895;53.240;6.572;2023-06-14T04:57:21;15.50;97.90
51855;DHT22;37895;53.240;6.572;2023-06-14T04:59:47;15.60;97.90
51855;DHT22;37895;53.240;6.572;2023-06-14T05:02:13;15.60;98.30
51855;DHT22;37895;53.240;6.572;2023-06-14T05:04:39;15.60;98.40
51855;DHT22;37895;53.240;6.572;2023-06-14T05:07:08;15.60;98.20
51855;DHT22;37895;53.240;6.572;2023-06-14T05:09:34;15.60;98.50
51855;DHT22;37895;53.240;6.572;2023-06-14T05:12:00;15.60;98.50
51855;DHT22;37895;53.240;6.572;2023-06-14T05:14:25;15.70;98.50
51855;DHT22;37895;53.240;6.572;2023-06-14T05:16:52;15.70;98.20
51855;DHT22;37895;53.240;6.572;2023-06-14T05:19:17;15.80;98.30
51855;DHT22;37895;53.240;6.572;2023-06-14T05:21:43;15.80;98.30
51855;DHT22;37895;53.240;6.572;2023-06-14T05:24:09;15.90;98.40
51855;DHT22;37895;53.240;6.572;2023-06-14T05:26:35;15.90;98.30
51855;DHT22;37895;53.240;6.572;2023-06-14T05:29:00;16.00;98.10
51855;DHT22;37895;53.240;6.572;2023-06-14T05:31:27;16.00;98.00
51855;DHT22;37895;53.240;6.572;2023-06-14T05:33:53;16.10;97.90
51855;DHT22;37895;53.240;6.572;2023-06-14T05:36:19;16.10;98.10
51855;DHT22;37895;53.240;6.572;2023-06-14T05:38:46;16.10;98.00
51855;DHT22;37895;53.240;6.572;2023-06-14T05:41:12;16.20;97.90
51855;DHT22;37895;53.240;6.572;2023-06-14T05:43:37;16.30;97.50
51855;DHT22;37895;53.240;6.572;2023-06-14T05:46:03;16.40;97.30
51855;DHT22;37895;53.240;6.572;2023-06-14T05:48:29;16.50;97.20
51855;DHT22;37895;53.240;6.572;2023-06-14T05:50:55;16.50;96.90
51855;DHT22;37895;53.240;6.572;2023-06-14T05:53:21;16.50;96.90
51855;DHT22;37895;53.240;6.572;2023-06-14T05:55:46;16.50;97.00
51855;DHT22;37895;53.240;6.572;2023-06-14T05:58:12;16.60;96.90
51855;DHT22;37895;53.240;6.572;2023-06-14T06:00:39;16.70;96.80
51855;DHT22;37895;53.240;6.572;2023-06-14T06:03:04;16.70;97.10
51855;DHT22;37895;53.240;6.572;2023-06-14T06:05:30;16.80;96.80
51855;DHT22;37895;53.240;6.572;2023-06-14T06:07:55;16.80;96.60
51855;DHT22;37895;53.240;6.572;2023-06-14T06:10:21;16.90;96.40
51855;DHT22;37895;53.240;6.572;2023-06-14T06:12:46;17.00;96.40
51855;DHT22;37895;53.240;6.572;2023-06-14T06:15:13;17.00;96.30
51855;DHT22;37895;53.240;6.572;2023-06-14T06:17:39;17.10;96.10
51855;DHT22;37895;53.240;6.572;2023-06-14T06:20:05;17.20;95.90
51855;DHT22;37895;53.240;6.572;2023-06-14T06:22:36;17.30;95.70
51855;DHT22;37895;53.240;6.572;2023-06-14T06:25:01;17.40;95.50
51855;DHT22;37895;53.240;6.572;2023-06-14T06:27:28;17.40;95.50
51855;DHT22;37895;53.240;6.572;2023-06-14T06:29:53;17.40;95.50
51855;DHT22;37895;53.240;6.572;2023-06-14T06:32:19;17.50;95.40
51855;DHT22;37895;53.240;6.572;2023-06-14T06:34:44;17.60;95.30
51855;DHT22;37895;53.240;6.572;2023-06-14T06:37:10;17.60;95.80
51855;DHT22;37895;53.240;6.572;2023-06-14T06:39:36;17.60;95.50
51855;DHT22;37895;53.240;6.572;2023-06-14T06:42:01;17.70;95.50
51855;DHT22;37895;53.240;6.572;2023-06-14T06:44:27;17.80;95.20
51855;DHT22;37895;53.240;6.572;2023-06-14T06:46:52;17.80;95.40
51855;DHT22;37895;53.240;6.572;2023-06-14T06:49:18;17.90;95.40
51855;DHT22;37895;53.240;6.572;2023-06-14T06:51:48;18.00;95.20
51855;DHT22;37895;53.240;6.572;2023-06-14T06:54:23;18.10;95.10
51855;DHT22;37895;53.240;6.572;2023-06-14T06:56:49;18.10;95.00
51855;DHT22;37895;53.240;6.572;2023-06-14T06:59:14;18.20;95.20
51855;DHT22;37895;53.240;6.572;2023-06-14T07:01:42;18.20;94.60
51855;DHT22;37895;53.240;6.572;2023-06-14T07:04:07;18.30;94.40
51855;DHT22;37895;53.240;6.572;2023-06-14T07:06:33;18.40;94.30
51855;DHT22;37895;53.240;6.572;2023-06-14T07:08:58;18.40;94.40
51855;DHT22;37895;53.240;6.572;2023-06-14T07:11:26;18.50;94.30
51855;DHT22;37895;53.240;6.572;2023-06-14T07:13:52;18.50;94.30
51855;DHT22;37895;53.240;6.572;2023-06-14T07:16:18;18.60;94.20
51855;DHT22;37895;53.240;6.572;2023-06-14T07:18:43;18.70;94.10
51855;DHT22;37895;53.240;6.572;2023-06-14T07:21:09;18.80;94.00
51855;DHT22;37895;53.240;6.572;2023-06-14T07:23:34;18.80;93.70
51855;DHT22;37895;53.240;6.572;2023-06-14T07:26:00;18.90;93.50
51855;DHT22;37895;53.240;6.572;2023-06-14T07:28:26;19.00;93.30
51855;DHT22;37895;53.240;6.572;2023-06-14T07:30:51;19.10;93.20
51855;DHT22;37895;53.240;6.572;2023-06-14T07:33:17;19.20;92.30
51855;DHT22;37895;53.240;6.572;2023-06-14T07:35:42;19.20;92.30
51855;DHT22;37895;53.240;6.572;2023-06-14T07:38:08;19.20;92.70
51855;DHT22;37895;53.240;6.572;2023-06-14T07:40:33;19.30;92.20
51855;DHT22;37895;53.240;6.572;2023-06-14T07:42:59;19.40;91.80
51855;DHT22;37895;53.240;6.572;2023-06-14T07:45:25;19.40;92.10
51855;DHT22;37895;53.240;6.572;2023-06-14T07:47:50;19.50;91.90
51855;DHT22;37895;53.240;6.572;2023-06-14T07:50:16;19.60;92.20
51855;DHT22;37895;53.240;6.572;2023-06-14T07:52:42;19.60;91.80
51855;DHT22;37895;53.240;6.572;2023-06-14T07:55:07;19.70;91.40
51855;DHT22;37895;53.240;6.572;2023-06-14T07:57:33;19.70;91.80
51855;DHT22;37895;53.240;6.572;2023-06-14T07:59:59;19.80;91.20
51855;DHT22;37895;53.240;6.572;2023-06-14T08:02:24;19.90;91.50
51855;DHT22;37895;53.240;6.572;2023-06-14T08:04:50;19.90;90.70
51855;DHT22;37895;53.240;6.572;2023-06-14T08:07:15;19.90;90.70
51855;DHT22;37895;53.240;6.572;2023-06-14T08:09:41;20.00;90.70
51855;DHT22;37895;53.240;6.572;2023-06-14T08:12:07;20.00;90.40
51855;DHT22;37895;53.240;6.572;2023-06-14T08:14:35;20.10;89.00
51855;DHT22;37895;53.240;6.572;2023-06-14T08:17:00;20.10;90.30
51855;DHT22;37895;53.240;6.572;2023-06-14T08:19:26;20.20;90.00
51855;DHT22;37895;53.240;6.572;2023-06-14T08:21:51;20.20;90.40
51855;DHT22;37895;53.240;6.572;2023-06-14T08:24:20;20.30;89.90
51855;DHT22;37895;53.240;6.572;2023-06-14T08:26:46;20.30;90.00
51855;DHT22;37895;53.240;6.572;2023-06-14T08:29:12;20.40;90.00
51855;DHT22;37895;53.240;6.572;2023-06-14T08:31:37;20.40;89.60
51855;DHT22;37895;53.240;6.572;2023-06-14T08:34:03;20.50;90.00
51855;DHT22;37895;53.240;6.572;2023-06-14T08:36:28;20.50;87.20
51855;DHT22;37895;53.240;6.572;2023-06-14T08:38:54;20.60;88.40
51855;DHT22;37895;53.240;6.572;2023-06-14T08:41:21;20.60;87.60
51855;DHT22;37895;53.240;6.572;2023-06-14T08:43:48;20.60;87.20
51855;DHT22;37895;53.240;6.572;2023-06-14T08:46:14;20.60;87.00
51855;DHT22;37895;53.240;6.572;2023-06-14T08:48:46;20.70;87.10
51855;DHT22;37895;53.240;6.572;2023-06-14T08:51:22;20.80;88.20
51855;DHT22;37895;53.240;6.572;2023-06-14T08:53:52;20.90;88.30
51855;DHT22;37895;53.240;6.572;2023-06-14T08:56:18;20.90;88.80
51855;DHT22;37895;53.240;6.572;2023-06-14T08:58:43;21.00;86.40
51855;DHT22;37895;53.240;6.572;2023-06-14T09:01:10;21.00;87.80
51855;DHT22;37895;53.240;6.572;2023-06-14T09:03:42;21.10;87.40
51855;DHT22;37895;53.240;6.572;2023-06-14T09:06:08;21.10;85.00
51855;DHT22;37895;53.240;6.572;2023-06-14T09:08:42;21.20;85.50
51855;DHT22;37895;53.240;6.572;2023-06-14T09:11:08;21.20;86.00
51855;DHT22;37895;53.240;6.572;2023-06-14T09:13:34;21.20;85.00
51855;DHT22;37895;53.240;6.572;2023-06-14T09:15:59;21.30;86.90
51855;DHT22;37895;53.240;6.572;2023-06-14T09:21:00;21.50;86.90
51855;DHT22;37895;53.240;6.572;2023-06-14T09:23:26;21.50;85.20
51855;DHT22;37895;53.240;6.572;2023-06-14T09:25:51;21.50;86.70
51855;DHT22;37895;53.240;6.572;2023-06-14T09:28:17;21.60;85.90
51855;DHT22;37895;53.240;6.572;2023-06-14T09:30:42;21.60;85.50
51855;DHT22;37895;53.240;6.572;2023-06-14T09:33:08;21.60;85.80
51855;DHT22;37895;53.240;6.572;2023-06-14T09:35:34;21.70;84.30
51855;DHT22;37895;53.240;6.572;2023-06-14T09:37:59;21.80;85.40
51855;DHT22;37895;53.240;6.572;2023-06-14T09:40:26;21.80;85.40
51855;DHT22;37895;53.240;6.572;2023-06-14T09:42:51;21.90;84.20
51855;DHT22;37895;53.240;6.572;2023-06-14T09:45:17;22.00;84.30
51855;DHT22;37895;53.240;6.572;2023-06-14T09:47:49;22.00;83.00
51855;DHT22;37895;53.240;6.572;2023-06-14T09:50:15;22.10;80.20
51855;DHT22;37895;53.240;6.572;2023-06-14T09:52:41;22.10;82.60
51855;DHT22;37895;53.240;6.572;2023-06-14T09:55:11;22.10;83.20
51855;DHT22;37895;53.240;6.572;2023-06-14T09:57:38;22.20;83.40
51855;DHT22;37895;53.240;6.572;2023-06-14T10:00:06;22.30;82.20
51855;DHT22;37895;53.240;6.572;2023-06-14T10:02:36;22.30;80.10
51855;DHT22;37895;53.240;6.572;2023-06-14T10:07:30;22.40;76.90
51855;DHT22;37895;53.240;6.572;2023-06-14T10:09:57;22.40;79.00
51855;DHT22;37895;53.240;6.572;2023-06-14T10:12:22;22.50;79.50
51855;DHT22;37895;53.240;6.572;2023-06-14T10:14:51;22.60;79.00
51855;DHT22;37895;53.240;6.572;2023-06-14T10:17:22;22.70;80.50
51855;DHT22;37895;53.240;6.572;2023-06-14T10:19:56;22.70;79.40
51855;DHT22;37895;53.240;6.572;2023-06-14T10:22:33;22.70;76.70
51855;DHT22;37895;53.240;6.572;2023-06-14T10:25:01;22.70;78.80
51855;DHT22;37895;53.240;6.572;2023-06-14T10:27:27;22.80;77.00
51855;DHT22;37895;53.240;6.572;2023-06-14T10:32:18;22.90;77.90
51855;DHT22;37895;53.240;6.572;2023-06-14T10:34:44;22.80;75.60
51855;DHT22;37895;53.240;6.572;2023-06-14T10:37:13;22.80;75.80
51855;DHT22;37895;53.240;6.572;2023-06-14T10:39:40;22.70;75.80
51855;DHT22;37895;53.240;6.572;2023-06-14T10:42:06;22.80;77.20
51855;DHT22;37895;53.240;6.572;2023-06-14T10:47:28;23.10;76.70
51855;DHT22;37895;53.240;6.572;2023-06-14T10:50:15;23.10;74.70
51855;DHT22;37895;53.240;6.572;2023-06-14T10:52:42;23.10;74.00
51855;DHT22;37895;53.240;6.572;2023-06-14T10:57:49;23.30;76.10
51855;DHT22;37895;53.240;6.572;2023-06-14T11:00:21;23.50;75.80
51855;DHT22;37895;53.240;6.572;2023-06-14T11:05:35;23.70;73.70
51855;DHT22;37895;53.240;6.572;2023-06-14T11:10:51;23.70;72.80
51855;DHT22;37895;53.240;6.572;2023-06-14T11:13:18;23.80;72.30
51855;DHT22;37895;53.240;6.572;2023-06-14T11:15:44;23.90;73.70
51855;DHT22;37895;53.240;6.572;2023-06-14T11:18:10;24.00;71.80
51855;DHT22;37895;53.240;6.572;2023-06-14T11:20:37;24.10;71.10
51855;DHT22;37895;53.240;6.572;2023-06-14T11:23:03;24.20;70.80
51855;DHT22;37895;53.240;6.572;2023-06-14T11:25:28;24.30;70.40
51855;DHT22;37895;53.240;6.572;2023-06-14T11:27:54;24.40;69.50
51855;DHT22;37895;53.240;6.572;2023-06-14T11:30:20;24.50;70.90
51855;DHT22;37895;53.240;6.572;2023-06-14T11:32:46;24.60;67.90
51855;DHT22;37895;53.240;6.572;2023-06-14T11:35:12;24.60;67.90
51855;DHT22;37895;53.240;6.572;2023-06-14T11:37:39;24.50;68.20
51855;DHT22;37895;53.240;6.572;2023-06-14T11:40:08;24.50;69.40
51855;DHT22;37895;53.240;6.572;2023-06-14T11:42:35;24.40;68.40
51855;DHT22;37895;53.240;6.572;2023-06-14T11:45:00;24.40;67.30
51855;DHT22;37895;53.240;6.572;2023-06-14T11:47:38;24.30;65.60
51855;DHT22;37895;53.240;6.572;2023-06-14T11:50:04;24.30;64.60
51855;DHT22;37895;53.240;6.572;2023-06-14T11:52:30;24.20;65.10
51855;DHT22;37895;53.240;6.572;2023-06-14T11:54:56;24.20;66.40
51855;DHT22;37895;53.240;6.572;2023-06-14T11:57:23;24.30;65.30
51855;DHT22;37895;53.240;6.572;2023-06-14T11:59:49;24.60;64.40
51855;DHT22;37895;53.240;6.572;2023-06-14T12:02:15;24.70;64.30
51855;DHT22;37895;53.240;6.572;2023-06-14T12:04:41;25.00;64.30
51855;DHT22;37895;53.240;6.572;2023-06-14T12:07:11;25.20;62.20
51855;DHT22;37895;53.240;6.572;2023-06-14T12:09:39;25.30;63.30
51855;DHT22;37895;53.240;6.572;2023-06-14T12:12:05;25.40;62.80
51855;DHT22;37895;53.240;6.572;2023-06-14T12:14:31;25.30;62.10
51855;DHT22;37895;53.240;6.572;2023-06-14T12:17:04;25.40;63.80
51855;DHT22;37895;53.240;6.572;2023-06-14T12:19:31;25.50;63.30
51855;DHT22;37895;53.240;6.572;2023-06-14T12:21:58;25.70;63.70
51855;DHT22;37895;53.240;6.572;2023-06-14T12:24:27;25.70;64.10
51855;DHT22;37895;53.240;6.572;2023-06-14T12:26:53;25.90;61.70
51855;DHT22;37895;53.240;6.572;2023-06-14T12:29:19;26.20;58.60
51855;DHT22;37895;53.240;6.572;2023-06-14T12:31:45;26.30;58.20
51855;DHT22;37895;53.240;6.572;2023-06-14T12:34:10;26.50;56.90
51855;DHT22;37895;53.240;6.572;2023-06-14T12:36:36;26.70;58.90
51855;DHT22;37895;53.240;6.572;2023-06-14T12:39:07;26.80;58.20
51855;DHT22;37895;53.240;6.572;2023-06-14T12:41:33;26.70;57.90
51855;DHT22;37895;53.240;6.572;2023-06-14T12:43:59;26.60;58.00
51855;DHT22;37895;53.240;6.572;2023-06-14T12:46:30;26.40;56.40
51855;DHT22;37895;53.240;6.572;2023-06-14T12:48:56;26.40;59.00
51855;DHT22;37895;53.240;6.572;2023-06-14T12:51:21;26.40;57.50
51855;DHT22;37895;53.240;6.572;2023-06-14T12:53:47;26.60;57.00
51855;DHT22;37895;53.240;6.572;2023-06-14T12:56:14;26.80;56.50
51855;DHT22;37895;53.240;6.572;2023-06-14T12:58:39;26.90;55.70
51855;DHT22;37895;53.240;6.572;2023-06-14T13:01:05;27.00;56.00
51855;DHT22;37895;53.240;6.572;2023-06-14T13:03:30;27.10;56.00
51855;DHT22;37895;53.240;6.572;2023-06-14T13:05:58;26.90;55.40
51855;DHT22;37895;53.240;6.572;2023-06-14T13:08:24;26.40;56.10
51855;DHT22;37895;53.240;6.572;2023-06-14T13:10:49;26.30;55.30
51855;DHT22;37895;53.240;6.572;2023-06-14T13:13:15;26.20;55.60
51855;DHT22;37895;53.240;6.572;2023-06-14T13:15:41;26.30;56.90
51855;DHT22;37895;53.240;6.572;2023-06-14T13:18:06;26.40;55.50
51855;DHT22;37895;53.240;6.572;2023-06-14T13:20:32;26.50;55.90
51855;DHT22;37895;53.240;6.572;2023-06-14T13:22:57;26.70;55.80
51855;DHT22;37895;53.240;6.572;2023-06-14T13:25:23;26.90;55.40
51855;DHT22;37895;53.240;6.572;2023-06-14T13:27:49;27.10;54.50
51855;DHT22;37895;53.240;6.572;2023-06-14T13:30:14;27.40;55.30
51855;DHT22;37895;53.240;6.572;2023-06-14T13:32:40;27.60;54.20
51855;DHT22;37895;53.240;6.572;2023-06-14T13:35:06;27.60;51.30
51855;DHT22;37895;53.240;6.572;2023-06-14T13:37:31;27.80;54.20
51855;DHT22;37895;53.240;6.572;2023-06-14T13:39:57;28.10;53.80
51855;DHT22;37895;53.240;6.572;2023-06-14T13:42:22;28.30;53.00
51855;DHT22;37895;53.240;6.572;2023-06-14T13:44:48;28.20;52.60
51855;DHT22;37895;53.240;6.572;2023-06-14T13:47:13;28.10;52.20
51855;DHT22;37895;53.240;6.572;2023-06-14T13:49:39;28.10;52.40
51855;DHT22;37895;53.240;6.572;2023-06-14T13:52:04;28.00;49.30
51855;DHT22;37895;53.240;6.572;2023-06-14T13:54:30;27.80;49.60
51855;DHT22;37895;53.240;6.572;2023-06-14T13:56:55;27.80;51.00
51855;DHT22;37895;53.240;6.572;2023-06-14T13:59:21;27.90;51.70
51855;DHT22;37895;53.240;6.572;2023-06-14T14:01:47;27.80;52.00
51855;DHT22;37895;53.240;6.572;2023-06-14T14:04:13;27.90;52.60
51855;DHT22;37895;53.240;6.572;2023-06-14T14:06:41;28.10;52.10
51855;DHT22;37895;53.240;6.572;2023-06-14T14:09:10;28.30;49.00
51855;DHT22;37895;53.240;6.572;2023-06-14T14:11:36;28.30;48.30
51855;DHT22;37895;53.240;6.572;2023-06-14T14:14:02;28.30;50.30
51855;DHT22;37895;53.240;6.572;2023-06-14T14:16:27;28.10;50.50
51855;DHT22;37895;53.240;6.572;2023-06-14T14:18:53;28.10;49.50
51855;DHT22;37895;53.240;6.572;2023-06-14T14:21:19;28.10;49.50
51855;DHT22;37895;53.240;6.572;2023-06-14T14:23:44;28.50;51.20
51855;DHT22;37895;53.240;6.572;2023-06-14T14:26:10;28.80;50.30
51855;DHT22;37895;53.240;6.572;2023-06-14T14:28:36;28.70;48.60
51855;DHT22;37895;53.240;6.572;2023-06-14T14:31:01;28.70;48.10
51855;DHT22;37895;53.240;6.572;2023-06-14T14:33:27;28.50;48.80
51855;DHT22;37895;53.240;6.572;2023-06-14T14:35:52;28.30;49.20
51855;DHT22;37895;53.240;6.572;2023-06-14T14:38:18;28.30;48.50
51855;DHT22;37895;53.240;6.572;2023-06-14T14:40:44;28.30;49.90
51855;DHT22;37895;53.240;6.572;2023-06-14T14:43:10;28.10;49.60
51855;DHT22;37895;53.240;6.572;2023-06-14T14:45:36;27.90;49.40
51855;DHT22;37895;53.240;6.572;2023-06-14T14:48:01;27.90;50.00
51855;DHT22;37895;53.240;6.572;2023-06-14T14:50:27;28.00;49.30
51855;DHT22;37895;53.240;6.572;2023-06-14T14:52:53;27.90;49.20
51855;DHT22;37895;53.240;6.572;2023-06-14T14:55:19;28.00;48.40
51855;DHT22;37895;53.240;6.572;2023-06-14T14:57:45;28.20;50.40
51855;DHT22;37895;53.240;6.572;2023-06-14T15:00:10;28.20;49.30
51855;DHT22;37895;53.240;6.572;2023-06-14T15:02:36;28.50;49.60
51855;DHT22;37895;53.240;6.572;2023-06-14T15:05:02;28.70;48.50
51855;DHT22;37895;53.240;6.572;2023-06-14T15:07:28;28.60;47.70
51855;DHT22;37895;53.240;6.572;2023-06-14T15:09:54;28.80;48.40
51855;DHT22;37895;53.240;6.572;2023-06-14T15:12:19;28.70;48.20
51855;DHT22;37895;53.240;6.572;2023-06-14T15:14:51;28.40;47.40
51855;DHT22;37895;53.240;6.572;2023-06-14T15:17:19;28.10;47.80
51855;DHT22;37895;53.240;6.572;2023-06-14T15:19:45;27.90;46.90
51855;DHT22;37895;53.240;6.572;2023-06-14T15:22:12;27.90;49.20
51855;DHT22;37895;53.240;6.572;2023-06-14T15:24:38;27.80;49.20
51855;DHT22;37895;53.240;6.572;2023-06-14T15:27:03;27.80;48.90
51855;DHT22;37895;53.240;6.572;2023-06-14T15:29:29;28.00;49.60
51855;DHT22;37895;53.240;6.572;2023-06-14T15:31:55;28.30;49.10
51855;DHT22;37895;53.240;6.572;2023-06-14T15:34:20;28.50;49.00
51855;DHT22;37895;53.240;6.572;2023-06-14T15:36:46;28.60;49.10
51855;DHT22;37895;53.240;6.572;2023-06-14T15:39:11;28.60;48.80
51855;DHT22;37895;53.240;6.572;2023-06-14T15:41:37;28.50;48.00
51855;DHT22;37895;53.240;6.572;2023-06-14T15:44:03;28.50;48.30